sensor_id;sensor_type;location;lat;lon;timestamp;temperature;humidity
74420;DHT22;62855;50.718;-2.460;2023-01-31T00:02:00;40.28;78.00
74420;DHT22;62855;50.718;-2.460;2023-01-31T00:05:01;40.28;78.00
74420;DHT22;62855;50.718;-2.460;2023-01-31T00:08:01;40.28;78.00
74420;DHT22;62855;50.718;-2.460;2023-01-31T00:11:01;40.28;78.00
74420;DHT22;62855;50.718;-2.460;2023-01-31T00:14:03;40.28;78.00
74420;DHT22;62855;50.718;-2.460;2023-01-31T00:17:00;40.46;79.00
74420;DHT22;62855;50.718;-2.460;2023-01-31T00:20:00;40.46;79.00
74420;DHT22;62855;50.718;-2.460;2023-01-31T00:23:00;40.46;79.00
74420;DHT22;62855;50.718;-2.460;2023-01-31T00:26:10;40.46;79.00
74420;DHT22;62855;50.718;-2.460;2023-01-31T00:29:03;40.46;79.00
74420;DHT22;62855;50.718;-2.460;2023-01-31T00:32:00;40.46;80.00
74420;DHT22;62855;50.718;-2.460;2023-01-31T00:35:00;40.46;80.00
74420;DHT22;62855;50.718;-2.460;2023-01-31T00:38:00;40.46;80.00
74420;DHT22;62855;50.718;-2.460;2023-01-31T00:41:02;40.46;80.00
74420;DHT22;62855;50.718;-2.460;2023-01-31T00:44:02;40.46;80.00
74420;DHT22;62855;50.718;-2.460;2023-01-31T00:47:01;40.46;80.00
74420;DHT22;62855;50.718;-2.460;2023-01-31T00:50:01;40.46;80.00
74420;DHT22;62855;50.718;-2.460;2023-01-31T00:53:00;40.46;80.00
74420;DHT22;62855;50.718;-2.460;2023-01-31T00:56:03;40.46;80.00
74420;DHT22;62855;50.718;-2.460;2023-01-31T00:59:01;40.28;80.00
74420;DHT22;62855;50.718;-2.460;2023-01-31T01:02:01;40.28;80.00
74420;DHT22;62855;50.718;-2.460;2023-01-31T01:05:00;40.28;80.00
74420;DHT22;62855;50.718;-2.460;2023-01-31T01:08:00;40.10;80.00
74420;DHT22;62855;50.718;-2.460;2023-01-31T01:11:06;40.10;80.00
74420;DHT22;62855;50.718;-2.460;2023-01-31T01:14:01;40.10;80.00
74420;DHT22;62855;50.718;-2.460;2023-01-31T01:17:01;39.92;80.00
74420;DHT22;62855;50.718;-2.460;2023-01-31T01:20:00;39.74;80.00
74420;DHT22;62855;50.718;-2.460;2023-01-31T01:23:01;39.74;80.00
74420;DHT22;62855;50.718;-2.460;2023-01-31T01:26:01;39.74;80.00
74420;DHT22;62855;50.718;-2.460;2023-01-31T01:29:01;39.56;80.00
74420;DHT22;62855;50.718;-2.460;2023-01-31T01:32:01;39.56;80.00
74420;DHT22;62855;50.718;-2.460;2023-01-31T01:35:01;39.56;80.00
74420;DHT22;62855;50.718;-2.460;2023-01-31T01:38:00;39.38;80.00
74420;DHT22;62855;50.718;-2.460;2023-01-31T01:41:00;39.38;80.00
74420;DHT22;62855;50.718;-2.460;2023-01-31T01:44:01;39.38;80.00
74420;DHT22;62855;50.718;-2.460;2023-01-31T01:47:01;39.38;80.00
74420;DHT22;62855;50.718;-2.460;2023-01-31T01:50:06;39.20;80.00
74420;DHT22;62855;50.718;-2.460;2023-01-31T01:53:05;39.20;80.00
74420;DHT22;62855;50.718;-2.460;2023-01-31T01:56:05;39.20;80.00
74420;DHT22;62855;50.718;-2.460;2023-01-31T01:59:05;39.38;80.00
74420;DHT22;62855;50.718;-2.460;2023-01-31T02:02:01;39.38;80.00
74420;DHT22;62855;50.718;-2.460;2023-01-31T02:05:01;39.38;80.00
74420;DHT22;62855;50.718;-2.460;2023-01-31T02:08:01;39.38;80.00
74420;DHT22;62855;50.718;-2.460;2023-01-31T02:11:03;39.56;81.00
74420;DHT22;62855;50.718;-2.460;2023-01-31T02:14:02;39.74;81.00
74420;DHT22;62855;50.718;-2.460;2023-01-31T02:17:00;39.74;81.00
74420;DHT22;62855;50.718;-2.460;2023-01-31T02:20:12;39.74;81.00
74420;DHT22;62855;50.718;-2.460;2023-01-31T02:23:19;39.74;81.00
74420;DHT22;62855;50.718;-2.460;2023-01-31T02:26:20;39.92;81.00
74420;DHT22;62855;50.718;-2.460;2023-01-31T02:29:14;39.92;81.00
74420;DHT22;62855;50.718;-2.460;2023-01-31T02:32:26;40.10;81.00
74420;DHT22;62855;50.718;-2.460;2023-01-31T02:35:08;40.10;81.00
74420;DHT22;62855;50.718;-2.460;2023-01-31T02:38:07;40.10;81.00
74420;DHT22;62855;50.718;-2.460;2023-01-31T02:41:04;40.28;81.00
74420;DHT22;62855;50.718;-2.460;2023-01-31T02:44:10;40.28;81.00
74420;DHT22;62855;50.718;-2.460;2023-01-31T02:47:05;40.46;81.00
74420;DHT22;62855;50.718;-2.460;2023-01-31T02:50:07;40.46;81.00
74420;DHT22;62855;50.718;-2.460;2023-01-31T02:53:03;40.64;81.00
74420;DHT22;62855;50.718;-2.460;2023-01-31T02:56:03;40.64;81.00
74420;DHT22;62855;50.718;-2.460;2023-01-31T02:59:03;40.82;81.00
74420;DHT22;62855;50.718;-2.460;2023-01-31T03:02:01;40.82;81.00
74420;DHT22;62855;50.718;-2.460;2023-01-31T03:05:00;40.82;81.00
74420;DHT22;62855;50.718;-2.460;2023-01-31T03:08:02;40.82;81.00
74420;DHT22;62855;50.718;-2.460;2023-01-31T03:11:03;40.82;81.00
74420;DHT22;62855;50.718;-2.460;2023-01-31T03:14:05;41.00;80.00
74420;DHT22;62855;50.718;-2.460;2023-01-31T03:17:05;41.00;80.00
74420;DHT22;62855;50.718;-2.460;2023-01-31T03:20:05;41.00;80.00
74420;DHT22;62855;50.718;-2.460;2023-01-31T03:23:02;41.00;80.00
74420;DHT22;62855;50.718;-2.460;2023-01-31T03:26:02;41.00;80.00
74420;DHT22;62855;50.718;-2.460;2023-01-31T03:29:02;41.18;80.00
74420;DHT22;62855;50.718;-2.460;2023-01-31T03:32:04;41.18;80.00
74420;DHT22;62855;50.718;-2.460;2023-01-31T03:35:01;41.18;80.00
74420;DHT22;62855;50.718;-2.460;2023-01-31T03:38:04;41.18;80.00
74420;DHT22;62855;50.718;-2.460;2023-01-31T03:41:05;41.36;80.00
74420;DHT22;62855;50.718;-2.460;2023-01-31T03:44:02;41.36;80.00
74420;DHT22;62855;50.718;-2.460;2023-01-31T03:47:04;41.36;80.00
74420;DHT22;62855;50.718;-2.460;2023-01-31T03:50:04;41.54;80.00
74420;DHT22;62855;50.718;-2.460;2023-01-31T03:53:06;41.54;80.00
74420;DHT22;62855;50.718;-2.460;2023-01-31T03:56:03;41.54;80.00
74420;DHT22;62855;50.718;-2.460;2023-01-31T03:59:05;41.54;80.00
74420;DHT22;62855;50.718;-2.460;2023-01-31T04:02:03;41.54;80.00
74420;DHT22;62855;50.718;-2.460;2023-01-31T04:05:05;41.36;80.00
74420;DHT22;62855;50.718;-2.460;2023-01-31T04:08:01;41.36;80.00
74420;DHT22;62855;50.718;-2.460;2023-01-31T04:11:03;41.18;80.00
74420;DHT22;62855;50.718;-2.460;2023-01-31T04:14:01;41.18;80.00
74420;DHT22;62855;50.718;-2.460;2023-01-31T04:17:01;41.00;80.00
74420;DHT22;62855;50.718;-2.460;2023-01-31T04:20:00;41.00;80.00
74420;DHT22;62855;50.718;-2.460;2023-01-31T04:23:02;40.82;80.00
74420;DHT22;62855;50.718;-2.460;2023-01-31T04:26:00;41.00;80.00
74420;DHT22;62855;50.718;-2.460;2023-01-31T04:29:01;41.00;80.00
74420;DHT22;62855;50.718;-2.460;2023-01-31T04:32:01;41.00;80.00
74420;DHT22;62855;50.718;-2.460;2023-01-31T04:35:00;41.00;80.00
74420;DHT22;62855;50.718;-2.460;2023-01-31T04:38:00;41.00;80.00
74420;DHT22;62855;50.718;-2.460;2023-01-31T04:41:01;41.00;80.00
74420;DHT22;62855;50.718;-2.460;2023-01-31T04:44:01;41.00;80.00
74420;DHT22;62855;50.718;-2.460;2023-01-31T04:47:01;41.00;80.00
74420;DHT22;62855;50.718;-2.460;2023-01-31T04:50:01;41.00;80.00
74420;DHT22;62855;50.718;-2.460;2023-01-31T04:53:00;41.00;81.00
74420;DHT22;62855;50.718;-2.460;2023-01-31T04:56:01;41.18;81.00
74420;DHT22;62855;50.718;-2.460;2023-01-31T04:59:01;41.18;81.00
74420;DHT22;62855;50.718;-2.460;2023-01-31T05:02:00;41.36;81.00
74420;DHT22;62855;50.718;-2.460;2023-01-31T05:05:00;41.54;81.00
74420;DHT22;62855;50.718;-2.460;2023-01-31T05:08:00;41.72;81.00
74420;DHT22;62855;50.718;-2.460;2023-01-31T05:11:03;41.72;81.00
74420;DHT22;62855;50.718;-2.460;2023-01-31T05:14:00;41.90;81.00
74420;DHT22;62855;50.718;-2.460;2023-01-31T05:17:00;41.90;81.00
74420;DHT22;62855;50.718;-2.460;2023-01-31T05:20:01;42.08;81.00
74420;DHT22;62855;50.718;-2.460;2023-01-31T05:23:01;42.08;81.00
74420;DHT22;62855;50.718;-2.460;2023-01-31T05:26:00;42.08;81.00
74420;DHT22;62855;50.718;-2.460;2023-01-31T05:29:00;42.08;81.00
74420;DHT22;62855;50.718;-2.460;2023-01-31T05:32:01;42.08;81.00
74420;DHT22;62855;50.718;-2.460;2023-01-31T05:35:01;42.08;81.00
74420;DHT22;62855;50.718;-2.460;2023-01-31T05:38:01;42.08;81.00
74420;DHT22;62855;50.718;-2.460;2023-01-31T05:41:00;42.08;81.00
74420;DHT22;62855;50.718;-2.460;2023-01-31T05:44:00;41.90;81.00
74420;DHT22;62855;50.718;-2.460;2023-01-31T05:47:00;41.90;81.00
74420;DHT22;62855;50.718;-2.460;2023-01-31T05:50:00;41.90;81.00
74420;DHT22;62855;50.718;-2.460;2023-01-31T05:53:00;41.90;81.00
74420;DHT22;62855;50.718;-2.460;2023-01-31T05:56:01;42.08;81.00
74420;DHT22;62855;50.718;-2.460;2023-01-31T05:59:00;42.08;81.00
74420;DHT22;62855;50.718;-2.460;2023-01-31T06:02:00;42.08;81.00
74420;DHT22;62855;50.718;-2.460;2023-01-31T06:05:01;42.08;82.00
74420;DHT22;62855;50.718;-2.460;2023-01-31T06:08:00;42.08;82.00
74420;DHT22;62855;50.718;-2.460;2023-01-31T06:11:00;42.26;82.00
74420;DHT22;62855;50.718;-2.460;2023-01-31T06:14:00;42.26;82.00
74420;DHT22;62855;50.718;-2.460;2023-01-31T06:17:01;42.26;82.00
74420;DHT22;62855;50.718;-2.460;2023-01-31T06:20:01;42.26;82.00
74420;DHT22;62855;50.718;-2.460;2023-01-31T06:23:01;42.26;82.00
74420;DHT22;62855;50.718;-2.460;2023-01-31T06:26:01;42.44;82.00
74420;DHT22;62855;50.718;-2.460;2023-01-31T06:29:00;42.44;82.00
74420;DHT22;62855;50.718;-2.460;2023-01-31T06:32:01;42.44;82.00
74420;DHT22;62855;50.718;-2.460;2023-01-31T06:35:00;42.44;82.00
74420;DHT22;62855;50.718;-2.460;2023-01-31T06:38:00;42.44;82.00
74420;DHT22;62855;50.718;-2.460;2023-01-31T06:41:01;42.26;82.00
74420;DHT22;62855;50.718;-2.460;2023-01-31T06:44:00;42.26;82.00
74420;DHT22;62855;50.718;-2.460;2023-01-31T06:47:00;42.26;82.00
74420;DHT22;62855;50.718;-2.460;2023-01-31T06:50:00;42.26;82.00
74420;DHT22;62855;50.718;-2.460;2023-01-31T06:53:01;42.26;82.00
74420;DHT22;62855;50.718;-2.460;2023-01-31T06:56:01;42.26;82.00
74420;DHT22;62855;50.718;-2.460;2023-01-31T06:59:00;42.44;82.00
74420;DHT22;62855;50.718;-2.460;2023-01-31T07:02:00;42.44;82.00
74420;DHT22;62855;50.718;-2.460;2023-01-31T07:05:00;42.44;82.00
74420;DHT22;62855;50.718;-2.460;2023-01-31T07:08:00;42.62;82.00
74420;DHT22;62855;50.718;-2.460;2023-01-31T07:11:00;42.62;82.00
74420;DHT22;62855;50.718;-2.460;2023-01-31T07:14:01;42.62;82.00
74420;DHT22;62855;50.718;-2.460;2023-01-31T07:17:00;42.62;82.00
74420;DHT22;62855;50.718;-2.460;2023-01-31T07:20:00;42.44;82.00
74420;DHT22;62855;50.718;-2.460;2023-01-31T07:23:00;42.44;82.00
74420;DHT22;62855;50.718;-2.460;2023-01-31T07:26:02;42.44;83.00
74420;DHT22;62855;50.718;-2.460;2023-01-31T07:29:00;42.62;83.00
74420;DHT22;62855;50.718;-2.460;2023-01-31T07:32:00;42.62;83.00
74420;DHT22;62855;50.718;-2.460;2023-01-31T07:35:01;42.80;83.00
74420;DHT22;62855;50.718;-2.460;2023-01-31T07:38:00;42.80;83.00
74420;DHT22;62855;50.718;-2.460;2023-01-31T07:41:02;42.98;83.00
74420;DHT22;62855;50.718;-2.460;2023-01-31T07:44:00;42.98;83.00
74420;DHT22;62855;50.718;-2.460;2023-01-31T07:47:01;43.16;84.00
74420;DHT22;62855;50.718;-2.460;2023-01-31T07:50:01;43.16;84.00
74420;DHT22;62855;50.718;-2.460;2023-01-31T07:53:00;43.16;84.00
74420;DHT22;62855;50.718;-2.460;2023-01-31T07:56:05;43.34;84.00
74420;DHT22;62855;50.718;-2.460;2023-01-31T07:59:00;43.34;84.00
74420;DHT22;62855;50.718;-2.460;2023-01-31T08:02:00;43.34;84.00
74420;DHT22;62855;50.718;-2.460;2023-01-31T08:05:01;43.34;84.00
74420;DHT22;62855;50.718;-2.460;2023-01-31T08:08:00;43.34;84.00
74420;DHT22;62855;50.718;-2.460;2023-01-31T08:11:01;43.34;84.00
74420;DHT22;62855;50.718;-2.460;2023-01-31T08:14:00;43.34;84.00
74420;DHT22;62855;50.718;-2.460;2023-01-31T08:17:00;43.16;84.00
74420;DHT22;62855;50.718;-2.460;2023-01-31T08:20:00;43.16;84.00
74420;DHT22;62855;50.718;-2.460;2023-01-31T08:23:00;43.34;84.00
74420;DHT22;62855;50.718;-2.460;2023-01-31T08:27:00;43.52;84.00
74420;DHT22;62855;50.718;-2.460;2023-01-31T08:30:01;43.52;84.00
74420;DHT22;62855;50.718;-2.460;2023-01-31T08:33:01;43.70;84.00
74420;DHT22;62855;50.718;-2.460;2023-01-31T08:36:07;43.88;84.00
74420;DHT22;62855;50.718;-2.460;2023-01-31T08:39:01;44.06;84.00
74420;DHT22;62855;50.718;-2.460;2023-01-31T08:42:01;44.24;85.00
74420;DHT22;62855;50.718;-2.460;2023-01-31T08:45:00;44.42;80.00
74420;DHT22;62855;50.718;-2.460;2023-01-31T08:48:00;44.60;80.00
74420;DHT22;62855;50.718;-2.460;2023-01-31T08:51:02;44.78;80.00
74420;DHT22;62855;50.718;-2.460;2023-01-31T08:54:00;44.96;80.00
74420;DHT22;62855;50.718;-2.460;2023-01-31T08:57:00;44.96;80.00
74420;DHT22;62855;50.718;-2.460;2023-01-31T09:00:01;44.96;80.00
74420;DHT22;62855;50.718;-2.460;2023-01-31T09:03:00;45.14;80.00
74420;DHT22;62855;50.718;-2.460;2023-01-31T09:06:00;45.32;80.00
74420;DHT22;62855;50.718;-2.460;2023-01-31T09:09:01;45.32;80.00
74420;DHT22;62855;50.718;-2.460;2023-01-31T09:12:02;45.50;80.00
74420;DHT22;62855;50.718;-2.460;2023-01-31T09:15:01;45.68;80.00
74420;DHT22;62855;50.718;-2.460;2023-01-31T09:18:00;45.68;80.00
74420;DHT22;62855;50.718;-2.460;2023-01-31T09:21:02;45.86;80.00
74420;DHT22;62855;50.718;-2.460;2023-01-31T09:24:00;45.86;80.00
74420;DHT22;62855;50.718;-2.460;2023-01-31T09:27:00;46.04;80.00
74420;DHT22;62855;50.718;-2.460;2023-01-31T09:30:01;46.04;80.00
74420;DHT22;62855;50.718;-2.460;2023-01-31T09:33:00;46.04;80.00
74420;DHT22;62855;50.718;-2.460;2023-01-31T09:36:03;46.22;80.00
74420;DHT22;62855;50.718;-2.460;2023-01-31T09:39:00;46.22;80.00
74420;DHT22;62855;50.718;-2.460;2023-01-31T09:42:08;46.40;80.00
74420;DHT22;62855;50.718;-2.460;2023-01-31T09:45:02;46.40;80.00
74420;DHT22;62855;50.718;-2.460;2023-01-31T09:48:01;46.40;80.00
74420;DHT22;62855;50.718;-2.460;2023-01-31T09:51:01;46.58;80.00
74420;DHT22;62855;50.718;-2.460;2023-01-31T09:54:01;46.58;80.00
74420;DHT22;62855;50.718;-2.460;2023-01-31T09:57:09;46.58;80.00
74420;DHT22;62855;50.718;-2.460;2023-01-31T10:00:08;46.76;80.00
74420;DHT22;62855;50.718;-2.460;2023-01-31T10:03:17;46.76;80.00
74420;DHT22;62855;50.718;-2.460;2023-01-31T10:06:07;46.76;80.00
74420;DHT22;62855;50.718;-2.460;2023-01-31T10:09:03;46.76;80.00
74420;DHT22;62855;50.718;-2.460;2023-01-31T10:12:08;46.94;80.00
74420;DHT22;62855;50.718;-2.460;2023-01-31T10:15:02;46.94;80.00
74420;DHT22;62855;50.718;-2.460;2023-01-31T10:18:04;46.94;80.00
74420;DHT22;62855;50.718;-2.460;2023-01-31T10:21:03;46.94;80.00
74420;DHT22;62855;50.718;-2.460;2023-01-31T10:24:04;47.12;80.00
74420;DHT22;62855;50.718;-2.460;2023-01-31T10:27:04;47.12;81.00
74420;DHT22;62855;50.718;-2.460;2023-01-31T10:30:03;47.30;81.00
74420;DHT22;62855;50.718;-2.460;2023-01-31T10:33:16;47.30;81.00
74420;DHT22;62855;50.718;-2.460;2023-01-31T10:36:04;47.30;81.00
74420;DHT22;62855;50.718;-2.460;2023-01-31T10:39:04;47.48;81.00
74420;DHT22;62855;50.718;-2.460;2023-01-31T10:42:14;47.48;81.00
74420;DHT22;62855;50.718;-2.460;2023-01-31T10:45:02;47.66;81.00
74420;DHT22;62855;50.718;-2.460;2023-01-31T10:48:11;47.66;81.00
74420;DHT22;62855;50.718;-2.460;2023-01-31T10:51:06;47.66;81.00
74420;DHT22;62855;50.718;-2.460;2023-01-31T10:54:09;47.84;81.00
74420;DHT22;62855;50.718;-2.460;2023-01-31T10:57:01;47.84;81.00
74420;DHT22;62855;50.718;-2.460;2023-01-31T11:00:01;48.02;81.00
74420;DHT22;62855;50.718;-2.460;2023-01-31T11:03:00;48.02;81.00
74420;DHT22;62855;50.718;-2.460;2023-01-31T11:06:01;48.20;81.00
74420;DHT22;62855;50.718;-2.460;2023-01-31T11:09:02;48.20;81.00
74420;DHT22;62855;50.718;-2.460;2023-01-31T11:12:03;48.20;81.00
74420;DHT22;62855;50.718;-2.460;2023-01-31T11:15:06;48.38;81.00
74420;DHT22;62855;50.718;-2.460;2023-01-31T11:18:01;48.38;81.00
74420;DHT22;62855;50.718;-2.460;2023-01-31T11:21:02;48.38;81.00
74420;DHT22;62855;50.718;-2.460;2023-01-31T11:24:02;48.56;81.00
74420;DHT22;62855;50.718;-2.460;2023-01-31T11:27:02;48.74;81.00
74420;DHT22;62855;50.718;-2.460;2023-01-31T11:30:00;48.74;81.00
74420;DHT22;62855;50.718;-2.460;2023-01-31T11:33:00;48.74;80.00
74420;DHT22;62855;50.718;-2.460;2023-01-31T11:36:06;48.92;80.00
74420;DHT22;62855;50.718;-2.460;2023-01-31T11:42:05;49.10;80.00
74420;DHT22;62855;50.718;-2.460;2023-01-31T11:45:03;49.10;80.00
74420;DHT22;62855;50.718;-2.460;2023-01-31T11:48:06;49.10;80.00
74420;DHT22;62855;50.718;-2.460;2023-01-31T11:51:01;49.28;80.00
74420;DHT22;62855;50.718;-2.460;2023-01-31T11:54:03;49.46;80.00
74420;DHT22;62855;50.718;-2.460;2023-01-31T11:57:01;49.64;80.00
74420;DHT22;62855;50.718;-2.460;2023-01-31T12:00:03;50.00;80.00
74420;DHT22;62855;50.718;-2.460;2023-01-31T12:03:03;50.18;80.00
74420;DHT22;62855;50.718;-2.460;2023-01-31T12:06:02;50.36;80.00
74420;DHT22;62855;50.718;-2.460;2023-01-31T12:09:03;50.36;80.00
74420;DHT22;62855;50.718;-2.460;2023-01-31T12:12:01;50.36;79.00
74420;DHT22;62855;50.718;-2.460;2023-01-31T12:15:04;50.36;79.00
74420;DHT22;62855;50.718;-2.460;2023-01-31T12:18:01;50.36;78.00
74420;DHT22;62855;50.718;-2.460;2023-01-31T12:21:05;50.36;78.00
74420;DHT22;62855;50.718;-2.460;2023-01-31T12:24:07;50.36;78.00
74420;DHT22;62855;50.718;-2.460;2023-01-31T12:27:06;50.36;78.00
74420;DHT22;62855;50.718;-2.460;2023-01-31T12:30:13;50.36;78.00
74420;DHT22;62855;50.718;-2.460;2023-01-31T12:33:12;50.18;78.00
74420;DHT22;62855;50.718;-2.460;2023-01-31T12:36:10;50.18;78.00
74420;DHT22;62855;50.718;-2.460;2023-01-31T12:39:13;50.18;78.00
74420;DHT22;62855;50.718;-2.460;2023-01-31T12:42:13;50.18;78.00
74420;DHT22;62855;50.718;-2.460;2023-01-31T12:45:11;50.18;78.00
74420;DHT22;62855;50.718;-2.460;2023-01-31T12:48:16;50.18;78.00
74420;DHT22;62855;50.718;-2.460;2023-01-31T12:51:08;50.00;78.00
74420;DHT22;62855;50.718;-2.460;2023-01-31T12:54:09;49.82;77.00
74420;DHT22;62855;50.718;-2.460;2023-01-31T12:57:15;49.82;76.00
74420;DHT22;62855;50.718;-2.460;2023-01-31T13:00:12;49.82;76.00
74420;DHT22;62855;50.718;-2.460;2023-01-31T13:03:12;50.00;75.00
74420;DHT22;62855;50.718;-2.460;2023-01-31T13:06:05;50.00;74.00
74420;DHT22;62855;50.718;-2.460;2023-01-31T13:09:04;50.18;73.00
74420;DHT22;62855;50.718;-2.460;2023-01-31T13:12:04;50.18;73.00
74420;DHT22;62855;50.718;-2.460;2023-01-31T13:15:05;50.18;72.00
74420;DHT22;62855;50.718;-2.460;2023-01-31T13:18:03;50.00;71.00
74420;DHT22;62855;50.718;-2.460;2023-01-31T13:21:03;49.82;71.00
74420;DHT22;62855;50.718;-2.460;2023-01-31T13:24:03;49.82;71.00
74420;DHT22;62855;50.718;-2.460;2023-01-31T13:27:05;49.64;71.00
74420;DHT22;62855;50.718;-2.460;2023-01-31T13:30:04;49.82;71.00
74420;DHT22;62855;50.718;-2.460;2023-01-31T13:36:07;49.82;70.00
74420;DHT22;62855;50.718;-2.460;2023-01-31T13:39:06;49.82;70.00
74420;DHT22;62855;50.718;-2.460;2023-01-31T13:42:00;49.64;71.00
74420;DHT22;62855;50.718;-2.460;2023-01-31T13:45:04;49.64;70.00
74420;DHT22;62855;50.718;-2.460;2023-01-31T13:48:04;49.64;70.00
74420;DHT22;62855;50.718;-2.460;2023-01-31T13:51:05;49.64;70.00
74420;DHT22;62855;50.718;-2.460;2023-01-31T13:54:04;49.64;70.00
74420;DHT22;62855;50.718;-2.460;2023-01-31T13:57:01;49.64;70.00
74420;DHT22;62855;50.718;-2.460;2023-01-31T14:00:06;49.82;70.00
74420;DHT22;62855;50.718;-2.460;2023-01-31T14:03:02;50.00;70.00
74420;DHT22;62855;50.718;-2.460;2023-01-31T14:06:00;50.00;70.00
74420;DHT22;62855;50.718;-2.460;2023-01-31T14:09:00;50.18;70.00
74420;DHT22;62855;50.718;-2.460;2023-01-31T14:18:01;49.82;63.00
74420;DHT22;62855;50.718;-2.460;2023-01-31T14:22:04;49.82;62.00
74420;DHT22;62855;50.718;-2.460;2023-01-31T14:25:03;49.82;61.00
74420;DHT22;62855;50.718;-2.460;2023-01-31T14:28:02;49.82;61.00
74420;DHT22;62855;50.718;-2.460;2023-01-31T14:31:10;50.00;61.00
74420;DHT22;62855;50.718;-2.460;2023-01-31T14:34:01;50.00;61.00
74420;DHT22;62855;50.718;-2.460;2023-01-31T14:37:07;50.18;61.00
74420;DHT22;62855;50.718;-2.460;2023-01-31T14:40:12;50.18;61.00
74420;DHT22;62855;50.718;-2.460;2023-01-31T14:43:11;50.36;61.00
74420;DHT22;62855;50.718;-2.460;2023-01-31T14:46:15;50.36;60.00
74420;DHT22;62855;50.718;-2.460;2023-01-31T14:49:12;50.36;60.00
74420;DHT22;62855;50.718;-2.460;2023-01-31T14:52:23;50.18;60.00
74420;DHT22;62855;50.718;-2.460;2023-01-31T14:55:11;50.00;59.00
74420;DHT22;62855;50.718;-2.460;2023-01-31T14:58:02;49.82;58.00
74420;DHT22;62855;50.718;-2.460;2023-01-31T15:01:03;49.64;58.00
74420;DHT22;62855;50.718;-2.460;2023-01-31T15:04:01;49.46;58.00
74420;DHT22;62855;50.718;-2.460;2023-01-31T15:07:01;49.28;58.00
74420;DHT22;62855;50.718;-2.460;2023-01-31T15:10:01;49.28;58.00
74420;DHT22;62855;50.718;-2.460;2023-01-31T15:13:01;49.28;58.00
74420;DHT22;62855;50.718;-2.460;2023-01-31T15:16:02;49.28;58.00
74420;DHT22;62855;50.718;-2.460;2023-01-31T15:19:06;49.28;58.00
74420;DHT22;62855;50.718;-2.460;2023-01-31T15:22:04;49.28;58.00
74420;DHT22;62855;50.718;-2.460;2023-01-31T15:25:06;49.28;58.00
74420;DHT22;62855;50.718;-2.460;2023-01-31T15:28:01;49.46;58.00
74420;DHT22;62855;50.718;-2.460;2023-01-31T15:31:03;49.46;58.00
74420;DHT22;62855;50.718;-2.460;2023-01-31T15:34:04;49.46;59.00
74420;DHT22;62855;50.718;-2.460;2023-01-31T15:37:04;49.64;59.00
74420;DHT22;62855;50.718;-2.460;2023-01-31T15:40:04;49.64;59.00
74420;DHT22;62855;50.718;-2.460;2023-01-31T15:43:21;49.46;58.00
74420;DHT22;62855;50.718;-2.460;2023-01-31T15:46:11;49.46;59.00
74420;DHT22;62855;50.718;-2.460;2023-01-31T15:49:01;49.46;59.00
74420;DHT22;62855;50.718;-2.460;2023-01-31T15:52:03;49.46;59.00
74420;DHT22;62855;50.718;-2.460;2023-01-31T15:55:05;49.28;60.00
74420;DHT22;62855;50.718;-2.460;2023-01-31T15:58:01;49.28;60.00
74420;DHT22;62855;50.718;-2.460;2023-01-31T16:02:02;49.10;60.00
74420;DHT22;62855;50.718;-2.460;2023-01-31T16:05:04;48.92;60.00
74420;DHT22;62855;50.718;-2.460;2023-01-31T16:08:03;48.56;59.00
74420;DHT22;62855;50.718;-2.460;2023-01-31T16:11:02;48.38;59.00
74420;DHT22;62855;50.718;-2.460;2023-01-31T16:14:03;48.02;59.00
74420;DHT22;62855;50.718;-2.460;2023-01-31T16:17:01;47.84;59.00
74420;DHT22;62855;50.718;-2.460;2023-01-31T16:20:00;47.66;59.00
74420;DHT22;62855;50.718;-2.460;2023-01-31T16:23:01;47.48;60.00
74420;DHT22;62855;50.718;-2.460;2023-01-31T16:26:05;47.30;60.00
74420;DHT22;62855;50.718;-2.460;2023-01-31T16:29:07;47.30;60.00
74420;DHT22;62855;50.718;-2.460;2023-01-31T16:32:01;47.12;60.00
74420;DHT22;62855;50.718;-2.460;2023-01-31T16:35:02;46.94;60.00
74420;DHT22;62855;50.718;-2.460;2023-01-31T16:38:03;46.94;60.00
74420;DHT22;62855;50.718;-2.460;2023-01-31T16:41:01;46.76;60.00
74420;DHT22;62855;50.718;-2.460;2023-01-31T16:44:02;46.58;61.00
74420;DHT22;62855;50.718;-2.460;2023-01-31T16:47:01;46.58;61.00
74420;DHT22;62855;50.718;-2.460;2023-01-31T16:53:11;46.40;61.00
74420;DHT22;62855;50.718;-2.460;2023-01-31T16:56:20;46.22;61.00
74420;DHT22;62855;50.718;-2.460;2023-01-31T16:59:01;46.22;62.00
74420;DHT22;62855;50.718;-2.460;2023-01-31T17:02:03;46.22;62.00
74420;DHT22;62855;50.718;-2.460;2023-01-31T17:05:08;46.04;62.00
74420;DHT22;62855;50.718;-2.460;2023-01-31T17:08:01;46.04;62.00
74420;DHT22;62855;50.718;-2.460;2023-01-31T17:11:01;45.86;62.00
74420;DHT22;62855;50.718;-2.460;2023-01-31T17:14:00;45.86;62.00
74420;DHT22;62855;50.718;-2.460;2023-01-31T17:17:00;45.68;62.00
74420;DHT22;62855;50.718;-2.460;2023-01-31T17:20:01;45.50;61.00
74420;DHT22;62855;50.718;-2.460;2023-01-31T17:23:00;45.50;61.00
74420;DHT22;62855;50.718;-2.460;2023-01-31T17:26:01;45.50;61.00
74420;DHT22;62855;50.718;-2.460;2023-01-31T17:29:00;45.32;62.00
74420;DHT22;62855;50.718;-2.460;2023-01-31T17:32:00;45.32;62.00
74420;DHT22;62855;50.718;-2.460;2023-01-31T17:35:00;45.50;62.00
74420;DHT22;62855;50.718;-2.460;2023-01-31T17:38:00;45.50;62.00
74420;DHT22;62855;50.718;-2.460;2023-01-31T17:41:00;45.50;62.00
74420;DHT22;62855;50.718;-2.460;2023-01-31T17:44:01;45.50;62.00
74420;DHT22;62855;50.718;-2.460;2023-01-31T17:47:01;45.32;62.00
74420;DHT22;62855;50.718;-2.460;2023-01-31T17:50:00;45.32;62.00
74420;DHT22;62855;50.718;-2.460;2023-01-31T17:53:00;45.32;62.00
74420;DHT22;62855;50.718;-2.460;2023-01-31T17:56:01;45.32;62.00
74420;DHT22;62855;50.718;-2.460;2023-01-31T17:59:00;45.50;62.00
74420;DHT22;62855;50.718;-2.460;2023-01-31T18:02:00;45.32;62.00
74420;DHT22;62855;50.718;-2.460;2023-01-31T18:05:01;45.32;62.00
74420;DHT22;62855;50.718;-2.460;2023-01-31T18:08:00;45.32;62.00
74420;DHT22;62855;50.718;-2.460;2023-01-31T18:11:02;45.14;62.00
74420;DHT22;62855;50.718;-2.460;2023-01-31T18:14:01;45.14;62.00
74420;DHT22;62855;50.718;-2.460;2023-01-31T18:17:01;45.14;62.00
74420;DHT22;62855;50.718;-2.460;2023-01-31T18:20:00;44.96;62.00
74420;DHT22;62855;50.718;-2.460;2023-01-31T18:23:00;44.78;62.00
74420;DHT22;62855;50.718;-2.460;2023-01-31T18:26:02;44.60;62.00
74420;DHT22;62855;50.718;-2.460;2023-01-31T18:29:01;44.42;62.00
74420;DHT22;62855;50.718;-2.460;2023-01-31T18:32:01;44.42;62.00
74420;DHT22;62855;50.718;-2.460;2023-01-31T18:35:00;44.24;66.00
74420;DHT22;62855;50.718;-2.460;2023-01-31T18:38:00;43.88;66.00
74420;DHT22;62855;50.718;-2.460;2023-01-31T18:41:04;43.88;66.00
74420;DHT22;62855;50.718;-2.460;2023-01-31T18:44:01;43.70;67.00
74420;DHT22;62855;50.718;-2.460;2023-01-31T18:47:01;43.52;67.00
74420;DHT22;62855;50.718;-2.460;2023-01-31T18:50:01;43.52;67.00
74420;DHT22;62855;50.718;-2.460;2023-01-31T18:53:00;43.34;67.00
74420;DHT22;62855;50.718;-2.460;2023-01-31T18:56:03;43.16;67.00